LIRQ/FLR METAR and TAF weather

Enter ICAO airport designator
Station Type Date Time Source
LIRQ METAR 2020/01/17 14:20 UTC NOAA

LIRQ 171420Z VRB02KT 9000 FEW035 11/06 Q1025


Station Type Date Time Source
LIRQ Decoded METAR 2020/01/17 14:20 UTC NOAA

Firenze / Peretola, Italy (LIRQ) 43-48N 011-12E 38M
Jan 17, 2020 - 09:20 AM EST / 2020.01.17 1420 UTC
Wind: Variable at 2 MPH (2 KT):0
Visibility: 5 mile(s):0
Sky conditions: mostly clear
Temperature: 51 F (11 C)
Dew Point: 42 F (6 C)
Relative Humidity: 71%
Pressure (altimeter): 30.27 in. Hg (1025 hPa)
ob: LIRQ 171420Z VRB02KT 9000 FEW035 11/06 Q1025
cycle: 14

Station Type Date Time Source
LIRQ TAF 2020/01/17 12:26 UTC NOAA

TAF LIRQ 171100Z 1712/1812 VRB04KT 7000 SCT030
TEMPO 1721/1806 4000 SHRA

Example: see airport list